Time;durP1;ratioP1;P1;durP2;ratioP2;P2;SDS_P1;SDS_P2;PMS_P1;PMS_P2;Temp;Humidity;BMP_temperature;BMP_pressure;BME280_temperature;BME280_humidity;BME280_pressure;Samples;Min_cycle;Max_cycle;Signal;HPM_P1;HPM_P2
2021/03/14 00:00:46;;;;;;;3.28;0.63;;;4.20;99.90;;;;;;5090919;28;20413;-47
2021/03/14 00:03:15;;;;;;;2.60;0.70;;;4.30;99.90;;;;;;5084154;28;21245;-48
2021/03/14 00:05:43;;;;;;;3.58;0.70;;;4.30;99.90;;;;;;5091012;28;20378;-50
2021/03/14 00:08:10;;;;;;;4.07;0.65;;;4.30;99.90;;;;;;5090254;28;20881;-48
2021/03/14 00:10:39;;;;;;;3.60;0.60;;;4.40;99.90;;;;;;5088622;28;20843;-52
2021/03/14 00:13:05;;;;;;;3.40;0.60;;;6.40;99.90;;;;;;5090244;28;20378;-48
2021/03/14 00:15:31;;;;;;;4.07;0.70;;;4.30;99.90;;;;;;5089400;28;20458;-50
2021/03/14 00:17:57;;;;;;;4.10;0.83;;;4.30;99.90;;;;;;5078816;28;20791;-54
2021/03/14 00:20:22;;;;;;;3.03;0.77;;;6.10;99.90;;;;;;5089959;28;20394;-47
2021/03/14 00:22:48;;;;;;;3.72;0.93;;;4.30;99.90;;;;;;5090464;28;21218;-48
2021/03/14 00:25:15;;;;;;;2.90;0.80;;;5.20;99.90;;;;;;5087832;28;20704;-49
2021/03/14 00:27:43;;;;;;;2.63;0.65;;;4.20;99.90;;;;;;5089217;28;20396;-48
2021/03/14 00:30:15;;;;;;;3.10;0.60;;;4.60;99.90;;;;;;5080649;28;20519;-48
2021/03/14 00:32:41;;;;;;;3.20;0.63;;;4.00;99.90;;;;;;5081251;28;20378;-48
2021/03/14 00:35:09;;;;;;;4.38;0.70;;;3.90;99.90;;;;;;5070027;28;20455;-50
2021/03/14 00:37:35;;;;;;;4.10;0.80;;;3.80;99.90;;;;;;5075544;28;20412;-48
2021/03/14 00:40:00;;;;;;;6.45;1.00;;;3.80;99.90;;;;;;5084526;28;20761;-48
2021/03/14 00:42:26;;;;;;;3.70;0.83;;;3.80;99.90;;;;;;5083740;28;20779;-48
2021/03/14 00:44:52;;;;;;;5.27;0.90;;;4.90;99.90;;;;;;5078092;28;20462;-48
2021/03/14 00:47:17;;;;;;;2.80;0.50;;;4.90;99.90;;;;;;5084199;28;20867;-50
2021/03/14 00:49:43;;;;;;;2.80;0.67;;;3.60;99.90;;;;;;5088986;28;20386;-48
2021/03/14 00:52:08;;;;;;;3.20;0.50;;;3.80;99.90;;;;;;5083623;28;20413;-48
2021/03/14 00:54:34;;;;;;;3.00;0.50;;;3.90;99.90;;;;;;5088685;28;20386;-48
2021/03/14 00:57:00;;;;;;;3.60;0.80;;;3.80;99.90;;;;;;5087765;28;20393;-48
2021/03/14 00:59:26;;;;;;;2.47;0.60;;;3.90;99.90;;;;;;5082249;28;20477;-48
2021/03/14 01:01:52;;;;;;;2.60;0.70;;;4.60;99.90;;;;;;5083620;28;20478;-48
2021/03/14 01:04:18;;;;;;;2.80;0.50;;;3.80;99.90;;;;;;5088439;28;21209;-48
2021/03/14 01:06:43;;;;;;;2.50;0.50;;;5.70;99.90;;;;;;5088349;28;20390;-48
2021/03/14 01:09:09;;;;;;;2.10;0.40;;;3.80;99.90;;;;;;5088616;28;20798;-48
2021/03/14 01:11:35;;;;;;;2.60;0.70;;;3.90;99.90;;;;;;5088822;28;20417;-48
2021/03/14 01:14:00;;;;;;;2.40;0.47;;;4.00;99.90;;;;;;5088418;28;20373;-49
2021/03/14 01:16:26;;;;;;;2.40;0.40;;;3.90;99.90;;;;;;5087970;28;20394;-50
2021/03/14 01:18:52;;;;;;;2.70;0.50;;;4.00;99.90;;;;;;5085380;28;20376;-48
2021/03/14 01:21:17;;;;;;;2.22;0.40;;;4.20;99.90;;;;;;5069784;28;20376;-49
2021/03/14 01:23:43;;;;;;;2.38;0.30;;;4.60;99.90;;;;;;5088890;28;20405;-48
2021/03/14 01:26:09;;;;;;;2.60;0.40;;;3.90;99.90;;;;;;5083895;28;20401;-49
2021/03/14 01:28:34;;;;;;;2.20;0.40;;;3.80;99.90;;;;;;5078890;28;20863;-48
2021/03/14 01:31:01;;;;;;;2.95;0.40;;;3.80;99.90;;;;;;5089358;28;20385;-49
2021/03/14 01:33:26;;;;;;;2.47;0.50;;;3.80;99.90;;;;;;5082298;28;20380;-48
2021/03/14 01:35:52;;;;;;;2.50;0.40;;;4.60;99.90;;;;;;5078446;28;20438;-48
2021/03/14 01:38:18;;;;;;;2.38;0.35;;;3.80;99.90;;;;;;5088678;28;20378;-50
2021/03/14 01:40:44;;;;;;;2.40;0.43;;;3.70;99.90;;;;;;5085204;28;20391;-49
2021/03/14 01:43:09;;;;;;;3.20;0.50;;;3.70;99.90;;;;;;5087818;28;20554;-48
2021/03/14 01:45:35;;;;;;;3.78;0.50;;;4.00;99.90;;;;;;5088202;28;20428;-48
2021/03/14 01:48:03;;;;;;;3.15;0.68;;;3.50;99.90;;;;;;5088874;28;20388;-49
2021/03/14 01:50:31;;;;;;;2.85;0.75;;;3.60;99.90;;;;;;5087549;28;20940;-48
2021/03/14 01:52:56;;;;;;;3.13;0.80;;;3.60;99.90;;;;;;5088013;28;20393;-49
2021/03/14 01:55:23;;;;;;;3.45;0.82;;;5.00;99.90;;;;;;5087462;28;20802;-48
2021/03/14 01:57:49;;;;;;;3.80;1.20;;;3.60;99.90;;;;;;5068102;28;20784;-48
2021/03/14 02:00:18;;;;;;;2.90;0.70;;;4.20;99.90;;;;;;5076344;28;20433;-50
2021/03/14 02:02:45;;;;;;;2.78;0.70;;;3.50;99.90;;;;;;5089823;28;20417;-49
2021/03/14 02:05:12;;;;;;;2.77;0.87;;;3.60;99.90;;;;;;5077016;28;20724;-49
2021/03/14 02:07:40;;;;;;;3.20;0.73;;;3.60;99.90;;;;;;5088529;28;20409;-51
2021/03/14 02:10:07;;;;;;;2.70;0.70;;;3.60;99.90;;;;;;5091095;28;20397;-50
2021/03/14 02:12:50;;;;;;;3.00;0.80;;;3.60;99.90;;;;;;5092252;28;20476;-49
2021/03/14 02:15:16;;;;;;;3.30;1.00;;;3.50;99.90;;;;;;5082299;28;20390;-50
2021/03/14 02:17:43;;;;;;;4.10;0.95;;;5.10;99.90;;;;;;5086117;28;20381;-51
2021/03/14 02:20:17;;;;;;;3.70;1.10;;;3.50;99.90;;;;;;5090888;28;20733;-50
2021/03/14 02:22:46;;;;;;;3.42;1.20;;;3.50;99.90;;;;;;5091810;28;20475;-50
2021/03/14 02:25:22;;;;;;;3.47;1.00;;;3.60;99.90;;;;;;5092086;28;20773;-49
2021/03/14 02:27:48;;;;;;;4.35;1.13;;;2.30;99.90;;;;;;5057680;28;20827;-49
2021/03/14 02:30:15;;;;;;;4.55;1.30;;;5.60;99.90;;;;;;5091428;28;20390;-49
2021/03/14 02:32:42;;;;;;;3.70;1.50;;;3.60;99.90;;;;;;5080979;28;20384;-49
2021/03/14 02:35:09;;;;;;;4.57;1.60;;;3.90;99.90;;;;;;5090110;28;20394;-49
2021/03/14 02:37:36;;;;;;;4.43;1.60;;;3.60;99.90;;;;;;5093086;28;20382;-49
2021/03/14 02:40:04;;;;;;;4.28;1.40;;;5.40;99.90;;;;;;5090391;28;20409;-49
2021/03/14 02:42:30;;;;;;;4.85;1.73;;;3.60;99.90;;;;;;5090848;28;20755;-49
2021/03/14 02:44:57;;;;;;;5.95;1.77;;;3.60;99.90;;;;;;5092620;28;20424;-49
2021/03/14 02:47:25;;;;;;;4.88;2.08;;;3.70;99.90;;;;;;5090531;28;20390;-48
2021/03/14 02:49:52;;;;;;;7.32;1.95;;;3.60;99.90;;;;;;5087243;28;20380;-49
2021/03/14 02:52:20;;;;;;;6.00;2.10;;;4.10;99.90;;;;;;5072043;28;20392;-49
2021/03/14 02:54:48;;;;;;;5.18;1.90;;;3.70;99.90;;;;;;5086276;28;20586;-49
2021/03/14 02:57:17;;;;;;;5.53;1.80;;;3.70;99.90;;;;;;5085266;28;20489;-49
2021/03/14 02:59:43;;;;;;;6.43;2.30;;;4.10;99.90;;;;;;5092591;28;20378;-48
2021/03/14 03:02:09;;;;;;;6.60;2.00;;;3.70;99.90;;;;;;5089914;28;20448;-49
2021/03/14 03:04:35;;;;;;;5.10;1.80;;;3.70;99.90;;;;;;5092149;28;20385;-49
2021/03/14 03:07:01;;;;;;;5.13;2.20;;;5.00;99.90;;;;;;5090392;28;20398;-51
2021/03/14 03:09:28;;;;;;;5.57;1.80;;;3.60;99.90;;;;;;5092077;28;20843;-49
2021/03/14 03:11:56;;;;;;;4.57;1.45;;;3.60;99.90;;;;;;5089630;28;20402;-49
2021/03/14 03:14:27;;;;;;;3.60;1.38;;;3.60;99.90;;;;;;5091252;28;20382;-48
2021/03/14 03:16:53;;;;;;;3.95;1.45;;;3.60;99.90;;;;;;5092474;28;20370;-48
2021/03/14 03:19:21;;;;;;;5.60;1.58;;;4.20;99.90;;;;;;5089586;28;20414;-49
2021/03/14 03:21:48;;;;;;;4.43;1.50;;;3.60;99.90;;;;;;5090546;28;20398;-49
2021/03/14 03:24:14;;;;;;;2.80;1.00;;;3.60;99.90;;;;;;5071529;28;20773;-49
2021/03/14 03:26:47;;;;;;;3.20;1.10;;;5.40;99.90;;;;;;5090912;28;20453;-49
2021/03/14 03:29:18;;;;;;;3.53;1.30;;;3.60;99.90;;;;;;5089173;28;20398;-48
2021/03/14 03:31:46;;;;;;;3.05;1.23;;;3.50;99.90;;;;;;5074693;28;20387;-49
2021/03/14 03:34:12;;;;;;;4.57;1.30;;;3.50;99.90;;;;;;5089801;28;20398;-48
2021/03/14 03:36:38;;;;;;;3.38;1.30;;;3.50;99.90;;;;;;5090333;28;20440;-49
2021/03/14 03:39:09;;;;;;;7.00;1.60;;;3.60;99.90;;;;;;5090518;28;20392;-49
2021/03/14 03:41:59;;;;;;;5.80;1.70;;;3.60;99.90;;;;;;5086502;28;20408;-49
2021/03/14 03:44:26;;;;;;;4.60;1.50;;;3.50;99.90;;;;;;5091233;28;20469;-49
2021/03/14 03:46:57;;;;;;;4.03;1.80;;;3.50;99.90;;;;;;5091597;28;20367;-49
2021/03/14 03:49:31;;;;;;;5.15;1.55;;;3.50;99.90;;;;;;5089524;28;20431;-49
2021/03/14 03:51:59;;;;;;;4.10;1.90;;;4.60;99.90;;;;;;5090068;28;20891;-55
2021/03/14 03:54:26;;;;;;;5.88;1.90;;;3.50;99.90;;;;;;5089775;28;20436;-49
2021/03/14 03:56:54;;;;;;;4.03;2.03;;;3.60;99.90;;;;;;5089584;28;20669;-49
2021/03/14 03:59:21;;;;;;;5.32;1.88;;;5.40;99.90;;;;;;5071578;28;20394;-49
2021/03/14 04:01:48;;;;;;;3.85;1.45;;;3.50;99.90;;;;;;5091161;28;20377;-49
2021/03/14 04:04:14;;;;;;;3.90;1.60;;;3.50;99.90;;;;;;5084961;28;20795;-50
2021/03/14 04:06:42;;;;;;;4.60;1.50;;;4.40;99.90;;;;;;5090696;28;20398;-49
2021/03/14 04:09:08;;;;;;;3.70;1.63;;;3.50;99.90;;;;;;5090298;28;20738;-48
2021/03/14 04:11:38;;;;;;;4.53;1.70;;;3.50;99.90;;;;;;5089655;28;20426;-48
2021/03/14 04:14:04;;;;;;;4.93;2.33;;;4.00;99.90;;;;;;5089845;28;20378;-50
2021/03/14 04:16:30;;;;;;;5.80;2.45;;;4.40;99.90;;;;;;5088945;28;20477;-49
2021/03/14 04:18:58;;;;;;;5.95;1.50;;;3.50;99.90;;;;;;5091532;28;20397;-48
2021/03/14 04:21:25;;;;;;;3.72;1.80;;;3.50;99.90;;;;;;5088874;28;20410;-48
2021/03/14 04:23:53;;;;;;;3.92;1.50;;;4.60;99.90;;;;;;5090588;28;20496;-48
2021/03/14 04:26:20;;;;;;;6.30;1.80;;;4.80;99.90;;;;;;5084289;28;20539;-48
2021/03/14 04:28:50;;;;;;;5.05;1.60;;;3.50;99.90;;;;;;5089910;28;20406;-48
2021/03/14 04:31:16;;;;;;;5.83;1.77;;;3.50;99.90;;;;;;5089283;28;20516;-49
2021/03/14 04:33:44;;;;;;;6.13;1.70;;;4.90;99.90;;;;;;5068660;28;20812;-49
2021/03/14 04:36:11;;;;;;;7.13;1.80;;;4.40;99.90;;;;;;5089954;28;20370;-48
2021/03/14 04:38:39;;;;;;;6.18;1.67;;;3.60;99.90;;;;;;5090471;28;20382;-48
2021/03/14 04:41:05;;;;;;;4.70;1.60;;;3.60;99.90;;;;;;5087667;28;20867;-49
2021/03/14 04:43:31;;;;;;;4.60;0.95;;;3.80;99.90;;;;;;5090168;28;20818;-49
2021/03/14 04:45:57;;;;;;;4.55;1.30;;;3.70;99.90;;;;;;5089116;28;20398;-48
2021/03/14 04:48:24;;;;;;;5.60;1.40;;;3.50;99.90;;;;;;5089641;28;20403;-49
2021/03/14 04:50:52;;;;;;;4.95;1.60;;;3.60;99.90;;;;;;5089683;28;20410;-48
2021/03/14 04:53:22;;;;;;;4.15;1.25;;;3.60;99.90;;;;;;5088722;28;20397;-49
2021/03/14 04:55:49;;;;;;;3.92;1.40;;;3.70;99.90;;;;;;5075314;28;20391;-48
2021/03/14 04:58:19;;;;;;;6.00;1.20;;;3.60;99.90;;;;;;5084185;28;20412;-48
2021/03/14 05:00:45;;;;;;;6.25;1.58;;;3.60;99.90;;;;;;5090360;28;20477;-49
2021/03/14 05:03:16;;;;;;;3.50;1.20;;;5.40;99.90;;;;;;5089286;28;20429;-52
2021/03/14 05:05:44;;;;;;;3.58;1.20;;;3.70;99.90;;;;;;5087911;28;20393;-48
2021/03/14 05:08:11;;;;;;;6.10;1.50;;;3.50;99.90;;;;;;5087722;28;20810;-49
2021/03/14 05:10:39;;;;;;;4.57;1.50;;;3.50;99.90;;;;;;5071690;28;20429;-48
2021/03/14 05:13:06;;;;;;;6.05;1.70;;;3.50;99.90;;;;;;5088055;28;20452;-48
2021/03/14 05:15:32;;;;;;;5.28;1.23;;;4.20;99.90;;;;;;5078996;28;20379;-49
2021/03/14 05:17:58;;;;;;;5.60;1.20;;;3.40;99.90;;;;;;5089121;28;20386;-49
2021/03/14 05:20:26;;;;;;;3.90;1.47;;;3.40;99.90;;;;;;5088161;28;20424;-48
2021/03/14 05:22:55;;;;;;;3.13;1.00;;;3.40;99.90;;;;;;5088654;28;20449;-49
2021/03/14 05:25:21;;;;;;;4.10;1.53;;;4.00;99.90;;;;;;5079117;28;20421;-50
2021/03/14 05:27:52;;;;;;;4.40;1.30;;;5.10;99.90;;;;;;5089643;28;20440;-48
2021/03/14 05:30:36;;;;;;;3.80;1.30;;;3.50;99.90;;;;;;5087706;28;20422;-48
2021/03/14 05:33:02;;;;;;;7.95;1.40;;;4.20;99.90;;;;;;5085467;28;20459;-54
2021/03/14 05:35:30;;;;;;;6.60;1.85;;;3.50;99.90;;;;;;5089555;28;20375;-49
2021/03/14 05:37:57;;;;;;;3.70;1.50;;;4.30;99.90;;;;;;5090222;28;20532;-48
2021/03/14 05:40:24;;;;;;;4.20;1.40;;;3.50;99.90;;;;;;5087246;28;20398;-49
2021/03/14 05:42:51;;;;;;;3.95;1.33;;;3.60;99.90;;;;;;5088534;28;20418;-49
2021/03/14 05:45:18;;;;;;;4.60;1.33;;;5.20;99.90;;;;;;5092885;28;20829;-48
2021/03/14 05:47:44;;;;;;;4.67;1.70;;;3.40;99.90;;;;;;5085494;28;20376;-49
2021/03/14 05:50:12;;;;;;;6.20;1.80;;;3.50;99.90;;;;;;5087510;28;20413;-50
2021/03/14 05:52:40;;;;;;;4.28;1.45;;;3.50;99.90;;;;;;5088781;28;20510;-48
2021/03/14 05:55:16;;;;;;;7.22;1.58;;;4.60;99.90;;;;;;5084985;28;20391;-49
2021/03/14 05:57:47;;;;;;;7.15;1.50;;;3.50;99.90;;;;;;5082355;28;20859;-48
2021/03/14 06:00:22;;;;;;;3.75;1.50;;;3.60;99.90;;;;;;5090525;28;20378;-49
2021/03/14 06:02:47;;;;;;;4.50;1.40;;;3.70;99.90;;;;;;5092282;28;20463;-48
2021/03/14 06:05:14;;;;;;;7.40;1.80;;;3.60;99.90;;;;;;5092847;28;20424;-49
2021/03/14 06:07:40;;;;;;;5.82;1.70;;;5.00;99.90;;;;;;5093708;28;20374;-49
2021/03/14 06:10:06;;;;;;;6.43;1.90;;;4.00;99.90;;;;;;5090142;28;20409;-49
2021/03/14 06:12:32;;;;;;;4.00;1.73;;;3.60;99.90;;;;;;5093024;28;20397;-48
2021/03/14 06:14:58;;;;;;;9.38;2.10;;;3.70;99.90;;;;;;5092013;28;20390;-49
2021/03/14 06:17:27;;;;;;;4.60;1.70;;;5.40;99.90;;;;;;5092230;28;20459;-49
2021/03/14 06:19:53;;;;;;;5.80;1.67;;;5.90;99.90;;;;;;5093389;28;20366;-48
2021/03/14 06:22:19;;;;;;;4.78;1.80;;;3.60;99.90;;;;;;5086603;28;20421;-48
2021/03/14 06:24:46;;;;;;;4.40;1.90;;;3.70;99.90;;;;;;5091871;28;20522;-49
2021/03/14 06:27:31;;;;;;;4.90;1.77;;;4.70;99.90;;;;;;5091604;28;20386;-49
2021/03/14 06:29:57;;;;;;;5.97;2.00;;;5.20;99.90;;;;;;5092067;28;20785;-49
2021/03/14 06:32:23;;;;;;;4.72;1.50;;;3.80;99.90;;;;;;5079618;28;20393;-48
2021/03/14 06:34:49;;;;;;;5.00;2.05;;;5.80;99.90;;;;;;5085279;28;20477;-48
2021/03/14 06:37:16;;;;;;;5.80;1.73;;;4.50;99.90;;;;;;5076070;28;20386;-48
2021/03/14 06:39:50;;;;;;;4.80;1.40;;;3.80;99.90;;;;;;5085372;28;20429;-48
2021/03/14 06:42:34;;;;;;;5.75;1.67;;;3.60;99.90;;;;;;5079458;28;20406;-48
2021/03/14 06:45:12;;;;;;;5.13;1.52;;;3.60;99.90;;;;;;5088257;28;20394;-53
2021/03/14 06:47:43;;;;;;;4.00;1.53;;;3.70;99.90;;;;;;5091329;28;20452;-48
2021/03/14 06:50:17;;;;;;;5.55;1.40;;;3.80;99.90;;;;;;5087770;28;20386;-48
2021/03/14 06:53:11;;;;;;;5.55;1.10;;;5.10;99.90;;;;;;5074123;28;20402;-49
2021/03/14 06:55:37;;;;;;;4.88;1.40;;;3.70;99.90;;;;;;5077741;28;20415;-48
2021/03/14 06:58:23;;;;;;;7.03;1.70;;;3.80;99.90;;;;;;5073622;28;20477;-54
2021/03/14 07:01:11;;;;;;;4.10;1.40;;;3.70;99.90;;;;;;5090611;28;20398;-49
2021/03/14 07:03:45;;;;;;;4.35;1.30;;;3.80;99.90;;;;;;5088878;28;20421;-48
2021/03/14 07:06:16;;;;;;;5.82;1.60;;;3.70;99.90;;;;;;5091125;28;20485;-49
2021/03/14 07:08:44;;;;;;;4.05;1.52;;;3.70;99.90;;;;;;5086005;28;20372;-48
2021/03/14 07:11:10;;;;;;;5.38;1.40;;;3.80;99.90;;;;;;5082692;28;20422;-48
2021/03/14 07:13:37;;;;;;;5.30;1.20;;;4.00;99.90;;;;;;5090592;28;20397;-48
2021/03/14 07:16:04;;;;;;;6.30;1.60;;;3.80;99.90;;;;;;5089505;28;20394;-53
2021/03/14 07:18:29;;;;;;;4.03;1.60;;;3.80;99.90;;;;;;5091451;28;20469;-49
2021/03/14 07:20:55;;;;;;;5.10;1.35;;;3.80;99.90;;;;;;5090790;28;20480;-48
2021/03/14 07:23:41;;;;;;;6.22;1.23;;;3.80;99.90;;;;;;5081703;28;20406;-48
2021/03/14 07:26:07;;;;;;;6.60;1.87;;;3.80;99.90;;;;;;5081272;28;20801;-50
2021/03/14 07:28:32;;;;;;;6.93;1.60;;;4.30;99.90;;;;;;5085614;28;20394;-48
2021/03/14 07:30:58;;;;;;;5.00;1.40;;;5.90;99.90;;;;;;5086744;28;20417;-48
2021/03/14 07:33:24;;;;;;;7.10;1.70;;;4.10;99.90;;;;;;5085451;28;20984;-48
2021/03/14 07:35:49;;;;;;;5.43;1.25;;;4.20;99.90;;;;;;5088641;28;20748;-49
2021/03/14 07:38:15;;;;;;;3.95;1.40;;;4.20;99.90;;;;;;5083280;28;20378;-49
2021/03/14 07:40:41;;;;;;;5.38;1.25;;;4.20;99.90;;;;;;5070103;28;20480;-49
2021/03/14 07:43:08;;;;;;;5.13;1.20;;;4.10;99.90;;;;;;5084439;28;20406;-49
2021/03/14 07:45:34;;;;;;;5.20;1.60;;;5.00;99.90;;;;;;5069908;28;20756;-49
2021/03/14 07:48:01;;;;;;;3.50;1.37;;;4.20;99.90;;;;;;5082712;28;20388;-48
2021/03/14 07:50:43;;;;;;;3.90;1.40;;;6.40;99.90;;;;;;5088517;28;20390;-48
2021/03/14 07:53:10;;;;;;;8.13;1.60;;;4.10;99.90;;;;;;5082585;28;20398;-48
2021/03/14 07:55:38;;;;;;;5.35;1.40;;;4.00;99.90;;;;;;5087324;28;20397;-48
2021/03/14 07:58:05;;;;;;;6.00;1.37;;;4.50;99.90;;;;;;5086910;28;20390;-53
2021/03/14 08:00:33;;;;;;;5.70;1.10;;;5.40;99.90;;;;;;5086422;28;20497;-48
2021/03/14 08:03:04;;;;;;;5.45;2.13;;;4.40;99.90;;;;;;5085882;28;20414;-48
2021/03/14 08:05:38;;;;;;;5.60;1.30;;;4.40;99.90;;;;;;5085632;28;21233;-49
2021/03/14 08:08:07;;;;;;;5.40;1.67;;;4.60;99.90;;;;;;5082773;28;20484;-54
2021/03/14 08:10:37;;;;;;;5.35;2.30;;;4.60;99.90;;;;;;5084352;28;20402;-49
2021/03/14 08:13:05;;;;;;;6.13;1.40;;;4.60;99.90;;;;;;5055263;28;20449;-56
2021/03/14 08:15:33;;;;;;;6.45;1.25;;;4.70;99.90;;;;;;5076371;28;20394;-50
2021/03/14 08:18:01;;;;;;;4.30;1.23;;;4.70;99.90;;;;;;5086617;28;20386;-50
2021/03/14 08:20:45;;;;;;;4.27;1.03;;;6.50;99.90;;;;;;5085320;28;20393;-51
2021/03/14 08:23:16;;;;;;;5.60;1.10;;;4.70;99.90;;;;;;5083357;28;20422;-50
2021/03/14 08:25:44;;;;;;;7.97;1.40;;;4.50;99.90;;;;;;5075243;28;20406;-49
2021/03/14 08:28:32;;;;;;;4.05;1.50;;;4.60;99.90;;;;;;5075731;28;20394;-49
2021/03/14 08:31:03;;;;;;;6.07;1.40;;;4.70;99.90;;;;;;5085309;28;20426;-49
2021/03/14 08:33:39;;;;;;;4.13;1.20;;;5.00;99.90;;;;;;5078827;28;20487;-49
2021/03/14 08:36:07;;;;;;;5.07;1.08;;;4.90;99.90;;;;;;5078911;28;20413;-54
2021/03/14 08:38:44;;;;;;;5.47;1.70;;;5.10;99.90;;;;;;5086770;28;20806;-51
2021/03/14 08:41:16;;;;;;;4.38;1.17;;;5.20;99.90;;;;;;5083109;28;20409;-49
2021/03/14 08:43:43;;;;;;;3.90;1.00;;;5.50;99.90;;;;;;5084747;28;20504;-52
2021/03/14 08:46:09;;;;;;;6.15;1.25;;;5.90;99.90;;;;;;5085275;28;20410;-49
2021/03/14 08:48:36;;;;;;;5.22;0.90;;;5.50;99.90;;;;;;5076039;28;20433;-51
2021/03/14 08:51:02;;;;;;;3.33;0.90;;;5.40;99.90;;;;;;5079557;28;20419;-49
2021/03/14 08:53:28;;;;;;;4.20;1.00;;;5.40;99.90;;;;;;5081780;28;20467;-50
2021/03/14 08:55:54;;;;;;;4.18;1.05;;;5.40;99.90;;;;;;5080485;28;20390;-49
2021/03/14 08:58:20;;;;;;;5.73;1.10;;;5.50;99.90;;;;;;5075422;28;20395;-49
2021/03/14 09:01:11;;;;;;;5.13;1.10;;;5.20;99.90;;;;;;5081454;28;20801;-49
2021/03/14 09:03:44;;;;;;;5.65;1.80;;;5.20;99.90;;;;;;5082481;28;20464;-50
2021/03/14 09:06:25;;;;;;;4.20;1.25;;;5.60;99.90;;;;;;5084418;28;21236;-49
2021/03/14 09:08:55;;;;;;;5.00;1.10;;;5.70;99.90;;;;;;5081848;28;20382;-52
2021/03/14 09:11:42;;;;;;;4.30;0.90;;;5.90;99.90;;;;;;5080960;28;20398;-49
2021/03/14 09:14:26;;;;;;;3.83;0.82;;;5.70;99.90;;;;;;5087746;28;20449;-49
2021/03/14 09:16:57;;;;;;;4.00;1.30;;;5.70;99.90;;;;;;5085316;28;20406;-50
2021/03/14 09:19:27;;;;;;;3.70;1.10;;;5.50;99.90;;;;;;5075526;28;20391;-49
2021/03/14 09:21:58;;;;;;;5.32;1.20;;;5.60;99.90;;;;;;5084823;28;20874;-49
2021/03/14 09:24:29;;;;;;;4.47;1.08;;;5.50;99.90;;;;;;5081363;28;20396;-49
2021/03/14 09:27:03;;;;;;;6.57;1.30;;;5.80;99.90;;;;;;5070349;28;20417;-49
2021/03/14 09:29:37;;;;;;;4.97;1.00;;;5.70;99.90;;;;;;5081294;28;20886;-49
2021/03/14 09:32:12;;;;;;;5.20;0.70;;;5.90;99.90;;;;;;5084921;28;20512;-49
2021/03/14 09:34:38;;;;;;;4.25;0.95;;;6.40;99.90;;;;;;5075052;28;20404;-52
2021/03/14 09:37:03;;;;;;;4.38;1.23;;;6.50;99.90;;;;;;5087231;28;20456;-49
2021/03/14 09:39:29;;;;;;;4.20;1.80;;;6.60;99.90;;;;;;5082248;28;20510;-49
2021/03/14 09:41:55;;;;;;;4.28;0.68;;;6.80;99.90;;;;;;5078648;28;20422;-47
2021/03/14 09:44:20;;;;;;;3.93;0.90;;;6.60;99.90;;;;;;5081229;28;20410;-47
2021/03/14 09:47:00;;;;;;;5.50;1.10;;;6.60;99.90;;;;;;5076799;28;20486;-49
2021/03/14 09:49:27;;;;;;;7.68;1.70;;;7.00;99.90;;;;;;5083198;28;21042;-50
2021/03/14 09:51:56;;;;;;;3.90;0.90;;;6.90;99.90;;;;;;5082217;28;20723;-49
2021/03/14 09:54:25;;;;;;;5.63;1.20;;;6.30;99.90;;;;;;5082601;28;20413;-51
2021/03/14 09:56:53;;;;;;;4.07;1.30;;;6.40;99.90;;;;;;5080660;28;20407;-49
2021/03/14 09:59:26;;;;;;;3.75;1.30;;;6.40;99.90;;;;;;5079648;28;20471;-49
2021/03/14 10:01:53;;;;;;;5.40;1.30;;;6.30;99.90;;;;;;5080692;28;20806;-49
2021/03/14 10:04:19;;;;;;;4.90;1.40;;;6.20;99.90;;;;;;5080720;28;20623;-49
2021/03/14 10:06:46;;;;;;;3.67;0.90;;;6.10;99.90;;;;;;5081200;28;20394;-49
2021/03/14 10:09:31;;;;;;;6.93;1.60;;;6.10;99.90;;;;;;5083879;28;20433;-50
2021/03/14 10:11:57;;;;;;;4.47;1.20;;;6.40;99.90;;;;;;5081953;28;20740;-49
2021/03/14 10:14:23;;;;;;;4.47;1.45;;;6.00;99.90;;;;;;5075705;28;20364;-49
2021/03/14 10:16:50;;;;;;;6.23;1.00;;;6.10;99.90;;;;;;5084915;28;20389;-49
2021/03/14 10:19:17;;;;;;;6.00;1.40;;;6.10;99.90;;;;;;5080131;28;20408;-49
2021/03/14 10:21:47;;;;;;;4.50;1.00;;;6.30;99.90;;;;;;5086542;28;20399;-50
2021/03/14 10:24:22;;;;;;;6.30;1.20;;;6.50;99.90;;;;;;5081550;28;20479;-49
2021/03/14 10:26:57;;;;;;;8.55;1.10;;;6.30;99.90;;;;;;5073551;28;20395;-50
2021/03/14 10:29:38;;;;;;;5.53;1.13;;;6.30;99.90;;;;;;5081222;28;20600;-49
2021/03/14 10:32:21;;;;;;;8.77;1.50;;;6.30;99.90;;;;;;5086815;28;20884;-49
2021/03/14 10:34:56;;;;;;;6.43;1.45;;;6.50;99.90;;;;;;5081511;28;20410;-49
2021/03/14 10:37:36;;;;;;;7.15;1.60;;;6.40;99.90;;;;;;5084986;28;20521;-49
2021/03/14 10:40:14;;;;;;;13.07;2.90;;;6.30;99.90;;;;;;5085416;28;20505;-50
2021/03/14 10:42:42;;;;;;;7.28;2.55;;;6.50;99.90;;;;;;5084169;28;20775;-52
2021/03/14 10:45:10;;;;;;;4.30;1.00;;;6.80;99.90;;;;;;5081505;28;20406;-52
2021/03/14 10:47:37;;;;;;;5.60;1.50;;;6.70;99.90;;;;;;5090116;28;20787;-51
2021/03/14 10:50:16;;;;;;;5.43;1.40;;;6.90;99.90;;;;;;5078524;28;20378;-51
2021/03/14 10:52:43;;;;;;;9.43;3.40;;;7.00;99.90;;;;;;5085775;28;20459;-51
2021/03/14 10:55:30;;;;;;;10.85;3.00;;;7.40;99.90;;;;;;5081824;28;20408;-52
2021/03/14 10:58:16;;;;;;;6.60;1.90;;;7.40;99.90;;;;;;5089876;28;20394;-51
2021/03/14 11:00:46;;;;;;;6.13;1.92;;;7.30;99.90;;;;;;5072096;28;20390;-51
2021/03/14 11:03:24;;;;;;;4.53;1.10;;;7.50;99.90;;;;;;5087769;28;20509;-51
2021/03/14 11:05:51;;;;;;;4.80;1.30;;;7.50;99.90;;;;;;5090769;28;20394;-51
2021/03/14 11:08:17;;;;;;;4.28;0.98;;;7.50;99.90;;;;;;5088278;28;20394;-51
2021/03/14 11:10:56;;;;;;;3.33;1.00;;;7.70;99.90;;;;;;5086689;28;20418;-51
2021/03/14 11:13:21;;;;;;;5.70;1.33;;;7.90;99.90;;;;;;5063305;28;20812;-51
2021/03/14 11:15:47;;;;;;;6.68;1.65;;;7.80;99.90;;;;;;5082744;28;20392;-52
2021/03/14 11:18:21;;;;;;;6.40;1.40;;;7.80;99.90;;;;;;5087008;28;20427;-51
2021/03/14 11:20:47;;;;;;;7.23;1.20;;;7.90;99.90;;;;;;5087085;28;20481;-50
2021/03/14 11:23:12;;;;;;;5.25;0.77;;;7.60;99.90;;;;;;5085802;28;20820;-51
2021/03/14 11:25:38;;;;;;;4.18;1.02;;;7.60;99.90;;;;;;5079485;28;20490;-50
2021/03/14 11:28:08;;;;;;;6.20;1.00;;;7.70;99.90;;;;;;5076962;28;20411;-51
2021/03/14 11:30:35;;;;;;;6.72;1.45;;;8.00;99.90;;;;;;5081764;28;20382;-50
2021/03/14 11:33:01;;;;;;;4.80;1.70;;;8.30;99.90;;;;;;5071991;28;20879;-51
2021/03/14 11:35:27;;;;;;;8.13;2.05;;;8.70;99.90;;;;;;5090783;28;20493;-51
2021/03/14 11:37:52;;;;;;;6.20;1.90;;;8.80;99.90;;;;;;5089890;28;20874;-50
2021/03/14 11:40:18;;;;;;;7.37;1.70;;;8.50;99.90;;;;;;5089436;28;20400;-51
2021/03/14 11:42:46;;;;;;;9.10;2.13;;;8.60;99.90;;;;;;5091100;28;20414;-50
2021/03/14 11:45:12;;;;;;;6.77;1.80;;;8.40;99.90;;;;;;5089585;28;20398;-52
2021/03/14 11:47:38;;;;;;;4.80;1.52;;;8.10;99.90;;;;;;5091028;28;20429;-51
2021/03/14 11:50:05;;;;;;;6.17;1.40;;;8.20;99.90;;;;;;5089303;28;20422;-50
2021/03/14 11:52:31;;;;;;;7.53;1.35;;;9.20;99.90;;;;;;5088087;28;20735;-51
2021/03/14 11:54:56;;;;;;;6.32;1.20;;;8.00;99.90;;;;;;5087512;28;20380;-51
2021/03/14 11:57:22;;;;;;;7.97;1.20;;;8.00;99.90;;;;;;5088997;28;20439;-51
2021/03/14 11:59:48;;;;;;;8.18;1.90;;;7.70;99.90;;;;;;5061351;28;20771;-51
2021/03/14 12:02:13;;;;;;;8.50;1.90;;;7.70;99.90;;;;;;5066846;28;20486;-51
2021/03/14 12:04:39;;;;;;;5.05;1.08;;;7.70;99.90;;;;;;5080531;28;20540;-51
2021/03/14 12:07:05;;;;;;;4.85;1.25;;;7.60;99.90;;;;;;5075296;28;20429;-50
2021/03/14 12:09:31;;;;;;;5.90;1.07;;;7.50;99.90;;;;;;5086368;28;20859;-51
2021/03/14 12:11:59;;;;;;;7.05;1.40;;;7.10;99.90;;;;;;5085867;28;20867;-50
2021/03/14 12:14:24;;;;;;;3.30;0.70;;;7.30;99.90;;;;;;5080820;28;20456;-50
2021/03/14 12:16:50;;;;;;;6.50;0.90;;;6.90;99.90;;;;;;5084455;28;20386;-50
2021/03/14 12:19:16;;;;;;;3.60;0.80;;;6.90;99.90;;;;;;5084582;28;20481;-50
2021/03/14 12:21:41;;;;;;;4.00;0.90;;;6.70;99.90;;;;;;5086185;28;20532;-50
2021/03/14 12:24:07;;;;;;;4.55;0.80;;;6.70;99.90;;;;;;5081754;28;20416;-50
2021/03/14 12:26:33;;;;;;;4.07;0.80;;;6.70;99.90;;;;;;5086609;28;20397;-50
2021/03/14 12:28:58;;;;;;;4.03;0.90;;;6.80;99.90;;;;;;5079552;28;20386;-50
2021/03/14 12:31:24;;;;;;;6.70;1.42;;;6.70;99.90;;;;;;5084833;28;20402;-50
2021/03/14 12:33:50;;;;;;;5.07;1.40;;;6.70;99.90;;;;;;5078306;28;20464;-50
2021/03/14 12:36:16;;;;;;;4.10;1.00;;;6.60;99.90;;;;;;5082857;28;20402;-50
2021/03/14 12:38:42;;;;;;;6.07;1.00;;;6.50;99.90;;;;;;5087099;28;20831;-50
2021/03/14 12:41:08;;;;;;;5.03;0.90;;;6.60;99.90;;;;;;5083877;28;20386;-50
2021/03/14 12:43:35;;;;;;;3.92;1.05;;;6.20;99.90;;;;;;5082897;28;20411;-50
2021/03/14 12:46:00;;;;;;;3.97;1.00;;;6.00;99.90;;;;;;5087022;28;20473;-50
2021/03/14 12:48:26;;;;;;;3.40;0.90;;;5.80;99.90;;;;;;5087391;28;20997;-50
2021/03/14 12:50:51;;;;;;;3.92;0.90;;;5.80;99.90;;;;;;5084013;28;20390;-49
2021/03/14 12:53:17;;;;;;;5.00;1.00;;;5.80;99.90;;;;;;5073475;28;20398;-49
2021/03/14 12:55:43;;;;;;;4.82;1.20;;;5.60;99.90;;;;;;5089599;28;20439;-49
2021/03/14 12:58:09;;;;;;;9.60;2.00;;;6.60;99.90;;;;;;5087484;28;20389;-49
2021/03/14 13:00:34;;;;;;;4.77;0.90;;;5.40;99.90;;;;;;5085210;28;20447;-48
2021/03/14 13:03:00;;;;;;;3.63;0.93;;;5.60;99.90;;;;;;5086222;28;20420;-49
2021/03/14 13:05:26;;;;;;;6.72;1.25;;;5.40;99.90;;;;;;5087736;28;20493;-50